Time;durP1;ratioP1;P1;durP2;ratioP2;P2;SDS_P1;SDS_P2;PMS_P1;PMS_P2;Temp;Humidity;BMP_temperature;BMP_pressure;BME280_temperature;BME280_humidity;BME280_pressure;Samples;Min_cycle;Max_cycle;Signal;HPM_P1;HPM_P2
2022/10/04 00:01:57;;;;;;;11.40;5.68;;;;;;;20.23;51.62;100835.63;6236630;23;20072;-82
2022/10/04 00:04:33;;;;;;;12.88;5.80;;;;;;;20.21;51.87;100838.81;6236293;23;20042;-82
2022/10/04 00:07:22;;;;;;;15.50;5.82;;;;;;;20.21;51.96;100838.81;6212579;23;20007;-80
2022/10/04 00:10:21;;;;;;;14.85;6.00;;;;;;;20.12;52.09;100840.81;6211080;23;20055;-82
2022/10/04 00:13:17;;;;;;;11.38;5.95;;;;;;;20.02;52.24;100833.50;6213666;23;20021;-82
2022/10/04 00:15:49;;;;;;;27.05;12.80;;;;;;;19.88;52.47;100810.22;6199275;23;20016;-83
2022/10/04 00:18:28;;;;;;;11.10;6.47;;;;;;;19.98;52.71;100818.34;6224434;23;20333;-82
2022/10/04 00:20:58;;;;;;;13.32;5.47;;;;;;;19.77;52.98;100791.91;6194098;23;20334;-83
2022/10/04 00:23:40;;;;;;;7.32;4.13;;;;;;;19.95;53.00;100813.34;6214747;23;20020;-83
2022/10/04 00:26:39;;;;;;;10.55;6.28;;;;;;;19.88;53.21;100805.38;6234922;23;20021;-83
2022/10/04 00:29:25;;;;;;;14.70;5.55;;;;;;;20.03;52.74;100806.00;6216733;23;20032;-82
2022/10/04 00:32:10;;;;;;;11.75;5.70;;;;;;;20.07;53.00;100807.81;6215909;23;20088;-82
2022/10/04 00:34:52;;;;;;;11.98;6.15;;;;;;;20.11;52.79;100800.31;6237253;23;20059;-82
2022/10/04 00:37:21;;;;;;;12.55;5.78;;;;;;;20.03;52.88;100798.34;6209563;23;20021;-81
2022/10/04 00:40:16;;;;;;;12.15;6.38;;;;;;;19.97;52.98;100808.19;6215107;23;20051;-84
2022/10/04 00:42:46;;;;;;;13.68;4.85;;;;;;;19.83;53.74;100816.06;6213245;23;20017;-82
2022/10/04 00:45:17;;;;;;;;;;;;;;;19.50;53.59;100808.06;6216356;23;20068;-83
2022/10/04 00:47:47;;;;;;;11.13;5.78;;;;;;;19.59;53.89;100796.75;6238888;23;19955;-82
2022/10/04 00:50:38;;;;;;;13.18;5.55;;;;;;;19.51;53.90;100795.56;6214675;23;20076;-82
2022/10/04 00:53:40;;;;;;;11.95;5.97;;;;;;;19.36;53.77;100767.78;6216197;23;20048;-82
2022/10/04 00:56:14;;;;;;;9.13;5.05;;;;;;;19.51;54.30;100797.56;6220961;23;20321;-83
2022/10/04 00:59:02;;;;;;;9.82;5.30;;;;;;;19.42;54.09;100792.75;6196329;23;20021;-82
2022/10/04 01:01:34;;;;;;;9.68;4.93;;;;;;;19.25;54.33;100755.97;6221607;23;20031;-83
2022/10/04 01:04:05;;;;;;;13.52;4.95;;;;;;;18.97;54.24;100715.81;6222260;23;20031;-83
2022/10/04 01:06:35;;;;;;;13.63;5.72;;;;;;;19.45;54.51;100808.22;6221814;23;20092;-84
2022/10/04 01:09:07;;;;;;;13.35;5.70;;;;;;;19.38;54.61;100794.59;6220172;23;20021;-83
2022/10/04 01:11:56;;;;;;;8.38;4.35;;;;;;;19.16;54.35;100770.13;6219787;23;20020;-82
2022/10/04 07:01:32;;;;;;;27.55;9.00;;;;;;;16.10;60.42;100873.88;6211779;23;20021;-78
2022/10/04 07:04:38;;;;;;;30.77;9.10;;;;;;;16.04;60.65;100867.50;6187503;23;20012;-79
2022/10/04 07:07:40;;;;;;;21.17;10.68;;;;;;;15.67;60.95;100814.94;6213606;23;20040;-78
2022/10/04 07:10:25;;;;;;;19.73;8.65;;;;;;;15.78;61.11;100833.31;6214191;23;20399;-79
2022/10/04 07:13:08;;;;;;;21.00;10.60;;;;;;;16.08;61.33;100873.38;6189595;23;20025;-79
2022/10/04 07:15:48;;;;;;;23.17;9.82;;;;;;;15.72;61.73;100805.56;6189519;23;20095;-80
2022/10/04 07:18:35;;;;;;;16.80;10.77;;;;;;;15.96;61.65;100845.66;6215796;23;20017;-79
2022/10/04 07:21:10;;;;;;;15.80;9.20;;;;;;;16.29;61.77;100882.25;6214972;23;20024;-79
2022/10/04 07:23:52;;;;;;;18.00;9.88;;;;;;;16.31;61.82;100886.44;6189478;23;20138;-79
2022/10/04 07:26:44;;;;;;;16.73;9.57;;;;;;;16.30;62.00;100890.41;6214300;23;20016;-79
2022/10/04 07:29:27;;;;;;;16.63;10.15;;;;;;;16.16;62.14;100861.38;6214525;23;20017;-79
2022/10/04 07:32:03;;;;;;;27.33;10.65;;;;;;;16.39;62.19;100895.34;6214793;23;20020;-79
2022/10/04 07:34:46;;;;;;;16.15;9.05;;;;;;;16.26;62.53;100882.88;6216083;23;20017;-80
2022/10/04 07:37:14;;;;;;;18.70;10.98;;;;;;;16.30;62.69;100883.94;6186765;23;20387;-82
2022/10/04 07:39:54;;;;;;;18.60;10.85;;;;;;;15.92;62.68;100802.38;6213306;23;20035;-84
2022/10/04 07:42:30;;;;;;;26.92;10.63;;;;;;;16.51;62.94;100896.50;6211525;23;20027;-84
2022/10/04 07:45:18;;;;;;;122.25;16.30;;;;;;;16.56;62.77;100906.81;6187471;23;20052;-81
2022/10/04 07:47:48;;;;;;;42.95;12.85;;;;;;;16.64;62.71;100911.72;6188505;23;20016;-84
2022/10/04 07:50:20;;;;;;;23.05;11.00;;;;;;;15.88;62.62;100770.34;6187660;23;20016;-83
2022/10/04 07:52:56;;;;;;;18.60;11.27;;;;;;;16.15;62.38;100780.81;6187496;23;20024;-83
2022/10/04 07:55:28;;;;;;;23.08;11.88;;;;;;;17.13;62.45;100907.38;6212711;23;20099;-82
2022/10/04 07:58:12;;;;;;;23.02;11.13;;;;;;;17.29;62.76;100921.94;6212521;23;20027;-86
2022/10/04 08:00:48;;;;;;;19.00;10.27;;;;;;;16.79;62.37;100797.81;6212822;23;20028;-82
2022/10/04 08:03:33;;;;;;;17.20;10.18;;;;;;;17.76;60.95;100869.72;6214678;23;20020;-81
2022/10/04 08:06:42;;;;;;;20.45;10.75;;;;;;;18.31;60.06;100891.19;6187753;23;20017;-78
2022/10/04 08:09:10;;;;;;;16.48;8.55;;;;;;;18.10;59.27;100814.59;6184991;23;20099;-83
2022/10/04 08:11:58;;;;;;;21.13;9.80;;;;;;;19.01;59.02;100902.78;6189297;23;20024;-82
2022/10/04 08:14:38;;;;;;;13.52;8.38;;;;;;;19.24;58.47;100906.34;6187546;23;20030;-80
2022/10/04 08:17:23;;;;;;;;;;;;;;;19.54;58.25;100911.03;6214790;23;20341;-84
2022/10/04 08:20:25;;;;;;;21.70;9.07;;;;;;;19.51;57.35;100838.06;6188101;23;20011;-80
2022/10/04 08:23:20;;;;;;;14.98;7.90;;;;;;;20.35;56.46;100912.31;6148220;23;20021;-79
2022/10/04 08:25:47;;;;;;;17.77;7.93;;;;;;;20.74;55.54;100921.72;6214254;23;20021;-81
2022/10/04 08:31:37;;;;;;;12.98;7.78;;;;;;;21.28;54.56;100902.06;6214937;23;20035;-79
2022/10/04 08:34:16;;;;;;;12.07;7.72;;;;;;;21.60;53.90;100911.84;6189471;23;20132;-81
2022/10/04 08:36:43;;;;;;;15.38;9.77;;;;;;;22.03;53.32;100921.22;6190478;23;20016;-83
2022/10/04 08:39:40;;;;;;;14.68;8.20;;;;;;;22.32;52.82;100911.72;6191295;23;20024;-81
2022/10/04 08:42:28;;;;;;;12.95;8.48;;;;;;;22.54;52.53;100907.63;6174887;23;20063;-86
2022/10/04 08:45:26;;;;;;;19.13;9.63;;;;;;;22.77;51.73;100922.22;6215484;23;20027;-82
2022/10/04 08:48:13;;;;;;;21.40;10.07;;;;;;;22.15;51.25;100767.66;6188848;23;20013;-80
2022/10/04 08:50:53;;;;;;;18.77;8.30;;;;;;;23.47;50.81;100922.94;6216626;23;20023;-80
2022/10/04 08:53:44;;;;;;;13.73;8.35;;;;;;;23.67;50.20;100926.00;6214909;23;20025;-80
2022/10/04 08:56:30;;;;;;;17.52;8.63;;;;;;;24.03;49.48;100925.06;6189262;23;20024;-81
2022/10/04 08:58:58;;;;;;;11.00;8.88;;;;;;;24.39;48.59;100926.09;6213488;23;20031;-80
2022/10/04 09:01:49;;;;;;;14.38;8.98;;;;;;;24.46;47.73;100923.47;6189890;23;20474;-82
2022/10/04 09:04:28;;;;;;;13.07;8.25;;;;;;;24.49;47.55;100925.59;6189636;23;20013;-80
2022/10/04 09:07:14;;;;;;;12.48;7.03;;;;;;;24.53;47.20;100932.22;6189464;23;20019;-81
2022/10/04 09:09:44;;;;;;;24.58;8.07;;;;;;;24.77;46.88;100911.22;6189858;23;20355;-81
2022/10/04 09:12:43;;;;;;;12.07;7.05;;;;;;;24.68;45.80;100882.84;6187880;23;20085;-80
2022/10/04 09:15:30;;;;;;;16.92;8.50;;;;;;;24.06;45.92;100799.63;6189105;23;20071;-83
2022/10/04 09:18:22;;;;;;;13.05;7.75;;;;;;;24.80;45.99;100867.66;6188652;23;20017;-83
2022/10/04 09:21:00;;;;;;;15.95;7.43;;;;;;;25.52;45.23;100935.94;6176601;23;20095;-80
2022/10/04 09:23:29;;;;;;;11.10;7.03;;;;;;;25.84;44.65;100930.97;6214039;23;20351;-82
2022/10/04 09:26:39;;;;;;;14.52;8.02;;;;;;;26.07;44.53;100931.06;6188885;23;20027;-78
2022/10/04 09:29:13;;;;;;;18.88;9.23;;;;;;;26.29;43.85;100940.06;6183860;23;20032;-82
2022/10/04 09:32:17;;;;;;;16.17;8.10;;;;;;;26.31;43.44;100938.47;6188640;23;20020;-78
2022/10/04 09:35:18;;;;;;;15.48;7.43;;;;;;;26.57;42.99;100942.72;6189458;23;20017;-81
2022/10/04 09:38:22;;;;;;;10.02;6.75;;;;;;;26.78;42.81;100933.69;6189438;23;20044;-80
2022/10/04 09:41:21;;;;;;;14.43;8.02;;;;;;;25.95;42.75;100796.72;6215304;23;20020;-79
2022/10/04 09:44:26;;;;;;;13.52;7.35;;;;;;;27.23;42.13;100941.44;6171133;23;20017;-81
2022/10/04 09:47:00;;;;;;;14.77;7.30;;;;;;;27.62;41.53;100942.03;6200063;23;20068;-82
2022/10/04 09:49:58;;;;;;;13.85;7.60;;;;;;;27.58;41.09;100895.22;6235335;23;20024;-81
2022/10/04 09:52:59;;;;;;;11.80;6.53;;;;;;;27.93;40.96;100940.00;6212299;23;20032;-77
2022/10/04 09:56:09;;;;;;;9.75;6.10;;;;;;;28.10;40.45;100939.44;6216835;23;20027;-80
2022/10/04 09:58:50;;;;;;;11.18;6.35;;;;;;;28.23;40.02;100936.28;6215620;23;20039;-82
2022/10/04 10:01:34;;;;;;;16.30;6.60;;;;;;;28.38;39.74;100932.38;6208194;23;20040;-83
2022/10/04 10:17:35;;;;;;;8.40;5.35;;;;;;;31.08;32.45;100928.63;5136037;27;20841;-78
2022/10/04 10:20:32;;;;;;;8.27;5.00;;;;;;;31.04;33.58;100912.56;5131778;28;20056;-78
2022/10/04 10:23:34;;;;;;;7.45;5.15;;;;;;;31.47;33.20;100924.91;5132719;28;20055;-78
2022/10/04 10:26:16;;;;;;;8.25;4.88;;;;;;;31.78;33.11;100939.69;5139995;28;20043;-78
2022/10/04 10:29:19;;;;;;;9.13;5.18;;;;;;;31.92;33.80;100927.28;5127565;28;20058;-78
2022/10/04 10:31:55;;;;;;;8.80;4.65;;;;;;;32.37;32.33;100951.41;5109893;28;20050;-79
2022/10/04 10:35:09;;;;;;;8.30;5.57;;;;;;;32.65;32.76;100953.38;5116689;28;20067;-78
2022/10/04 10:38:39;;;;;;;10.63;4.85;;;;;;;33.22;32.08;100952.94;5106216;28;20054;-79
2022/10/04 10:41:09;;;;;;;8.10;4.63;;;;;;;33.75;31.01;100947.09;5054983;28;20048;-79
2022/10/04 10:44:01;;;;;;;6.60;4.05;;;;;;;33.94;30.71;100958.03;5119360;27;20425;-78
2022/10/04 10:46:57;;;;;;;7.63;4.78;;;;;;;34.02;30.58;100953.84;5118319;28;20059;-77
2022/10/04 10:49:36;;;;;;;9.40;5.57;;;;;;;34.34;30.35;100964.19;5114086;28;20058;-79
2022/10/04 10:52:24;;;;;;;;;;;;;;;34.24;31.78;100959.34;5119934;27;20051;-78
2022/10/04 10:55:00;;;;;;;9.63;5.60;;;;;;;34.69;30.08;100970.75;5110560;28;19927;-79
2022/10/04 10:57:42;;;;;;;7.97;5.25;;;;;;;34.88;29.75;100970.88;5111381;28;20065;-78
2022/10/04 11:00:19;;;;;;;9.52;5.70;;;;;;;34.93;28.99;100960.84;5112513;28;20357;-80
2022/10/04 11:03:17;;;;;;;8.82;6.35;;;;;;;35.33;28.24;100949.44;5116199;28;20722;-79
2022/10/04 11:06:02;;;;;;;12.70;6.95;;;;;;;36.34;27.59;100949.09;5119324;28;20054;-77
2022/10/04 11:08:32;;;;;;;;;;;;;;;37.06;28.64;100954.09;5119953;28;20051;-79
2022/10/04 11:11:16;;;;;;;18.33;11.05;;;;;;;37.37;27.72;100956.63;5123181;28;19923;-78
2022/10/04 11:14:01;;;;;;;12.93;8.13;;;;;;;37.31;27.18;100970.94;5117627;28;20444;-79
2022/10/04 11:17:00;;;;;;;15.02;9.30;;;;;;;36.78;27.96;100952.69;5116595;28;20066;-80
2022/10/04 11:20:01;;;;;;;16.48;9.35;;;;;;;36.67;27.84;100972.50;5102209;28;20058;-80
2022/10/04 11:22:47;;;;;;;20.05;9.95;;;;;;;36.73;27.90;100970.69;5101581;28;20051;-80
2022/10/04 11:25:51;;;;;;;18.30;11.23;;;;;;;36.52;28.27;100955.38;5104507;28;20088;-79
2022/10/04 11:28:36;;;;;;;17.55;10.32;;;;;;;36.69;28.36;100955.41;5106844;28;20051;-79
2022/10/04 11:31:34;;;;;;;14.75;9.35;;;;;;;36.80;27.43;100955.97;5105679;28;20083;-79
2022/10/04 11:34:29;;;;;;;17.45;8.80;;;;;;;36.87;27.50;100941.25;5105548;28;20075;-80
2022/10/04 11:37:46;;;;;;;15.77;10.75;;;;;;;37.14;27.58;100960.59;5101234;28;20048;-78
2022/10/04 11:40:35;;;;;;;15.50;9.32;;;;;;;37.60;26.89;100935.25;5089200;28;20058;-80
2022/10/04 11:43:56;;;;;;;13.02;8.90;;;;;;;38.10;26.04;100948.41;5112864;28;20051;-78
2022/10/04 11:46:35;;;;;;;17.08;9.68;;;;;;;38.36;25.48;100943.47;5071109;28;20060;-79
2022/10/04 11:49:25;;;;;;;15.60;9.45;;;;;;;38.98;24.99;100946.94;5101018;28;20054;-78
2022/10/04 11:52:16;;;;;;;15.98;9.60;;;;;;;39.02;24.88;100946.81;5104378;28;20135;-79
2022/10/04 11:54:46;;;;;;;13.15;8.85;;;;;;;38.73;24.57;100941.88;5106395;28;20066;-80
2022/10/04 11:57:51;;;;;;;17.40;9.95;;;;;;;38.56;25.08;100940.34;5107478;28;20047;-79
2022/10/04 12:00:20;;;;;;;16.63;8.60;;;;;;;38.25;24.79;100929.19;5107537;28;20051;-79
2022/10/04 12:03:09;;;;;;;15.43;9.40;;;;;;;38.45;24.43;100945.72;5105572;28;20048;-78
2022/10/04 12:06:12;;;;;;;16.80;9.10;;;;;;;38.52;24.69;100925.06;5101594;28;20106;-79
2022/10/04 12:09:06;;;;;;;14.80;8.85;;;;;;;38.63;24.34;100917.59;5105205;28;20043;-79
2022/10/04 12:15:17;;;;;;;19.00;8.73;;;;;;;39.19;23.79;100915.34;5096601;28;20059;-78
2022/10/04 12:18:11;;;;;;;12.32;7.50;;;;;;;39.32;23.38;100919.09;5101154;28;20056;-79
2022/10/04 12:20:38;;;;;;;13.13;7.63;;;;;;;39.38;23.00;100917.19;5102249;28;20043;-79
2022/10/04 12:23:28;;;;;;;11.27;7.40;;;;;;;39.52;22.36;100907.06;5103465;28;20059;-79
2022/10/04 12:26:30;;;;;;;13.65;7.97;;;;;;;39.71;22.53;100873.00;5106441;28;20040;-79
2022/10/04 12:29:26;;;;;;;9.80;6.70;;;;;;;39.86;22.36;100893.75;5104584;27;20079;-80
2022/10/04 12:32:09;;;;;;;11.55;6.70;;;;;;;39.87;22.20;100895.41;5111956;27;20501;-79
2022/10/04 12:34:58;;;;;;;15.55;7.45;;;;;;;39.91;21.72;100901.91;5101991;28;20122;-81
2022/10/04 12:37:45;;;;;;;10.38;5.97;;;;;;;39.91;21.54;100870.56;5101966;28;20043;-78
2022/10/04 12:40:28;;;;;;;10.13;6.60;;;;;;;40.10;21.44;100876.50;5104866;28;20525;-80
2022/10/04 12:43:20;;;;;;;12.10;7.57;;;;;;;40.68;21.33;100893.44;5096625;28;20048;-80
2022/10/04 12:46:05;;;;;;;13.13;7.05;;;;;;;41.30;20.21;100896.25;5094578;28;20114;-80
2022/10/04 12:48:40;;;;;;;12.98;7.22;;;;;;;41.41;20.09;100866.47;5102797;28;20055;-79
2022/10/04 12:51:20;;;;;;;12.55;6.05;;;;;;;41.80;19.89;100904.91;5109378;28;20055;-80
2022/10/04 12:53:50;;;;;;;10.93;6.20;;;;;;;42.00;19.82;100902.31;5097252;28;20044;-80
2022/10/04 12:56:38;;;;;;;10.90;6.40;;;;;;;42.38;19.27;100886.25;5095231;28;20047;-80
2022/10/04 12:59:17;;;;;;;11.70;6.82;;;;;;;42.46;18.85;100884.56;5103095;28;20060;-80
2022/10/04 13:02:11;;;;;;;8.77;6.25;;;;;;;42.74;19.33;100887.41;5104782;28;20058;-79
2022/10/04 13:04:52;;;;;;;8.50;5.78;;;;;;;43.09;18.58;100876.00;5111566;28;20126;-79
2022/10/04 13:07:21;;;;;;;11.35;6.00;;;;;;;43.05;18.23;100873.22;5102869;28;20075;-79
2022/10/04 13:10:08;;;;;;;9.60;6.03;;;;;;;41.24;19.39;100844.63;5109267;28;20054;-81
2022/10/04 13:13:11;;;;;;;10.32;5.53;;;;;;;38.50;21.51;100863.41;5109363;28;20070;-80
2022/10/04 13:15:58;;;;;;;10.25;5.53;;;;;;;36.85;22.92;100871.03;5109025;28;20407;-82
2022/10/04 13:19:31;;;;;;;8.25;4.40;;;;;;;35.10;23.79;100837.84;5110354;28;20462;-78
2022/10/04 13:22:27;;;;;;;9.98;4.32;;;;;;;33.97;24.93;100823.88;5110453;28;20048;-80
2022/10/04 13:25:28;;;;;;;11.60;5.80;;;;;;;32.99;26.05;100839.88;5100808;28;20387;-80
2022/10/04 13:28:25;;;;;;;8.68;5.07;;;;;;;32.10;26.37;100800.91;5100949;28;20048;-80
2022/10/04 13:31:05;;;;;;;8.85;5.28;;;;;;;31.64;27.05;100819.28;5109359;28;20047;-80
2022/10/04 13:33:46;;;;;;;10.18;4.88;;;;;;;31.31;27.30;100840.81;5104568;28;20505;-78
2022/10/04 13:36:38;;;;;;;11.52;5.22;;;;;;;30.81;27.72;100829.38;5100609;28;20059;-80
2022/10/04 13:39:23;;;;;;;8.57;5.30;;;;;;;30.31;27.38;100841.66;5100851;28;20062;-80
2022/10/04 13:42:18;;;;;;;11.32;5.07;;;;;;;29.82;28.33;100837.38;5105171;28;20047;-80
2022/10/04 13:44:57;;;;;;;8.63;5.20;;;;;;;29.56;28.81;100834.78;5101735;28;20054;-80
2022/10/04 13:48:00;;;;;;;7.03;4.40;;;;;;;29.13;29.53;100817.25;5101359;28;20379;-81
2022/10/04 13:51:09;;;;;;;8.48;4.60;;;;;;;28.74;29.73;100818.63;5101440;28;20052;-79
2022/10/04 13:57:38;;;;;;;11.98;6.00;;;;;;;28.31;30.88;100814.53;5098702;28;20051;-80
2022/10/04 14:00:44;;;;;;;13.52;6.00;;;;;;;27.78;31.10;100758.22;5096600;28;20044;-81
2022/10/04 14:03:45;;;;;;;9.48;4.72;;;;;;;27.87;31.50;100798.09;5105621;28;20110;-80
2022/10/04 14:06:31;;;;;;;9.73;5.15;;;;;;;27.83;31.72;100802.97;5097687;28;20050;-81
2022/10/04 14:09:06;;;;;;;12.20;5.53;;;;;;;27.75;32.40;100802.00;5102872;28;20055;-79
2022/10/04 14:12:07;;;;;;;13.45;5.80;;;;;;;27.58;32.51;100780.47;5110137;28;20074;-80
2022/10/04 14:14:46;;;;;;;10.85;5.05;;;;;;;27.62;33.02;100794.88;5096169;28;20059;-79
2022/10/04 14:17:32;;;;;;;9.48;4.90;;;;;;;27.48;33.00;100804.13;5100318;28;20532;-81
2022/10/04 14:20:37;;;;;;;9.10;4.57;;;;;;;27.27;33.37;100800.97;5101644;28;20516;-81
2022/10/04 14:23:19;;;;;;;9.68;4.68;;;;;;;27.26;33.59;100813.69;5102501;28;20056;-81
2022/10/04 14:25:57;;;;;;;13.02;4.90;;;;;;;27.17;33.95;100805.34;5108241;28;20146;-81
2022/10/04 14:28:36;;;;;;;11.38;4.10;;;;;;;27.12;34.40;100800.78;5108189;28;20044;-80
2022/10/04 14:31:19;;;;;;;5.10;4.00;;;;;;;26.97;34.52;100803.78;5106582;28;20051;-80
2022/10/04 14:34:11;;;;;;;11.45;5.43;;;;;;;26.93;34.85;100804.56;5106159;28;20078;-80
2022/10/04 14:36:59;;;;;;;11.73;5.30;;;;;;;26.85;34.81;100801.97;5111067;28;20040;-80
2022/10/04 14:39:35;;;;;;;10.48;5.30;;;;;;;26.82;35.06;100817.06;5115613;28;20054;-79
2022/10/04 14:42:37;;;;;;;8.65;5.78;;;;;;;26.67;35.04;100808.25;5115875;28;20052;-79
2022/10/04 14:45:31;;;;;;;8.50;5.53;;;;;;;26.61;35.40;100788.91;5100557;28;20059;-81
2022/10/04 14:48:17;;;;;;;15.02;6.00;;;;;;;26.70;35.71;100810.38;5123958;28;20474;-80
2022/10/04 14:51:03;;;;;;;9.98;5.85;;;;;;;26.68;35.76;100809.91;5116864;28;20036;-82
2022/10/04 14:53:49;;;;;;;11.35;5.03;;;;;;;26.39;36.14;100776.22;5125053;28;20473;-79
2022/10/04 14:56:33;;;;;;;9.80;5.50;;;;;;;26.52;36.01;100814.13;5109711;28;20047;-81
2022/10/04 14:59:21;;;;;;;14.98;6.53;;;;;;;26.41;36.35;100808.19;5100883;28;20134;-80
2022/10/04 15:02:06;;;;;;;11.95;6.15;;;;;;;26.30;36.63;100807.19;5111708;28;20060;-81
2022/10/04 15:05:05;;;;;;;9.25;5.32;;;;;;;26.20;36.44;100809.47;5108546;28;20062;-80
2022/10/04 15:07:38;;;;;;;12.15;5.47;;;;;;;26.04;36.82;100777.25;5104290;28;20135;-80
2022/10/04 15:10:23;;;;;;;10.82;5.22;;;;;;;26.10;36.95;100809.25;5106803;28;20460;-79
2022/10/04 15:13:20;;;;;;;11.18;5.70;;;;;;;26.02;37.15;100802.59;5111754;28;20401;-80
2022/10/04 15:15:59;;;;;;;14.07;5.45;;;;;;;25.95;37.67;100791.84;5110523;28;20134;-80
2022/10/04 15:18:38;;;;;;;10.65;5.55;;;;;;;25.80;37.78;100789.06;5105751;28;20472;-79
2022/10/04 15:21:43;;;;;;;10.95;5.80;;;;;;;25.67;37.82;100796.94;5108299;28;20056;-80
2022/10/04 15:24:13;;;;;;;10.73;5.05;;;;;;;25.67;38.17;100806.34;5102234;27;20052;-80
2022/10/04 15:26:48;;;;;;;;;;;;;;;25.61;37.81;100793.56;5103662;28;20505;-80
2022/10/04 15:29:30;;;;;;;7.90;4.80;;;;;;;25.57;37.88;100778.34;5107304;28;19930;-81
2022/10/04 15:32:04;;;;;;;10.23;3.88;;;;;;;25.64;37.85;100789.13;5101243;28;20055;-79
2022/10/04 15:34:45;;;;;;;10.40;4.57;;;;;;;25.63;38.61;100790.31;5101474;28;20096;-81
2022/10/04 15:37:34;;;;;;;7.97;4.88;;;;;;;25.61;37.93;100792.75;5098788;28;20048;-79
2022/10/04 15:40:19;;;;;;;16.00;7.55;;;;;;;25.59;37.97;100790.25;5104236;28;20059;-79
2022/10/04 15:43:12;;;;;;;10.05;4.55;;;;;;;25.38;38.42;100772.66;5104381;28;20051;-81
2022/10/04 15:46:11;;;;;;;12.07;5.38;;;;;;;25.51;38.53;100791.31;5109969;28;20043;-79
2022/10/04 15:48:58;;;;;;;12.70;4.75;;;;;;;25.40;38.31;100779.66;5082113;28;20043;-80
2022/10/04 15:52:03;;;;;;;11.77;4.07;;;;;;;25.36;38.64;100772.19;5103099;28;20048;-80
2022/10/04 15:54:54;;;;;;;10.48;4.32;;;;;;;25.31;38.36;100781.09;5106410;28;20055;-80
2022/10/04 15:57:45;;;;;;;6.93;3.65;;;;;;;25.30;38.36;100774.56;5100031;28;20054;-79
2022/10/04 16:00:21;;;;;;;9.50;4.60;;;;;;;25.27;38.36;100787.56;5103940;28;20524;-80
2022/10/04 16:02:57;;;;;;;6.15;3.78;;;;;;;25.22;38.99;100779.25;5105957;28;20074;-79
2022/10/04 16:05:36;;;;;;;8.68;3.90;;;;;;;25.14;39.00;100773.78;5113386;28;20063;-79
2022/10/04 16:08:17;;;;;;;11.63;4.20;;;;;;;25.09;39.59;100782.59;5102909;28;20055;-78
2022/10/04 16:11:21;;;;;;;9.73;3.83;;;;;;;25.01;39.25;100782.44;5103069;28;20048;-79
2022/10/04 16:13:55;;;;;;;8.27;4.20;;;;;;;24.99;39.41;100782.00;5093251;28;20044;-80
2022/10/04 16:16:28;;;;;;;8.40;3.30;;;;;;;25.00;39.59;100779.97;5106756;28;20063;-80
2022/10/04 16:19:29;;;;;;;6.25;3.22;;;;;;;24.95;39.42;100781.06;5094794;28;20048;-79
2022/10/04 16:22:06;;;;;;;5.78;3.72;;;;;;;24.91;39.33;100787.91;5111814;27;20044;-79
2022/10/04 16:24:45;;;;;;;11.88;3.28;;;;;;;24.88;39.84;100782.94;5111853;28;20051;-78
2022/10/04 16:27:42;;;;;;;11.07;3.33;;;;;;;24.55;39.96;100738.53;5104356;28;20051;-80
2022/10/04 16:30:18;;;;;;;7.03;3.25;;;;;;;24.78;40.15;100785.16;5097633;28;20048;-79
2022/10/04 16:32:55;;;;;;;7.03;2.60;;;;;;;24.78;39.58;100776.59;5104524;28;20205;-79
2022/10/04 16:35:28;;;;;;;9.55;3.15;;;;;;;24.59;40.00;100754.53;5104448;28;20402;-79
2022/10/04 16:38:06;;;;;;;5.32;3.40;;;;;;;24.31;40.29;100723.25;5105883;28;20123;-81
2022/10/04 16:41:26;;;;;;;7.43;3.28;;;;;;;24.53;39.81;100770.28;5094039;28;20058;-80
2022/10/04 16:43:55;;;;;;;6.07;3.53;;;;;;;24.52;40.19;100768.66;5102173;28;20051;-79
2022/10/04 16:46:35;;;;;;;8.55;3.92;;;;;;;24.34;40.29;100753.06;5113082;28;20048;-80
2022/10/04 16:49:20;;;;;;;7.43;3.65;;;;;;;24.33;40.55;100768.53;5113222;28;20079;-79
2022/10/04 16:52:12;;;;;;;11.65;4.68;;;;;;;24.26;41.55;100771.19;5112050;28;20061;-78
2022/10/04 16:54:57;;;;;;;8.15;3.03;;;;;;;24.17;41.16;100774.25;5109643;27;20440;-79
2022/10/04 16:57:26;;;;;;;8.40;3.00;;;;;;;24.17;41.33;100776.25;5112381;28;20055;-80
2022/10/04 17:00:06;;;;;;;6.32;3.17;;;;;;;24.07;41.89;100784.19;5095727;28;20078;-78
2022/10/04 17:02:42;;;;;;;8.52;3.25;;;;;;;24.05;41.76;100775.16;5100557;28;20486;-78
2022/10/04 17:05:47;;;;;;;4.93;2.83;;;;;;;23.94;41.90;100774.06;5108776;28;20044;-79
2022/10/04 17:08:14;;;;;;;6.55;2.50;;;;;;;23.91;41.79;100779.66;5111355;28;20055;-80
2022/10/04 17:11:18;;;;;;;4.13;2.65;;;;;;;23.79;41.70;100764.25;5113118;28;20058;-79
2022/10/04 17:13:57;;;;;;;7.57;3.33;;;;;;;23.76;42.56;100773.56;5095054;28;20048;-79
2022/10/04 17:16:45;;;;;;;7.93;2.88;;;;;;;23.55;42.19;100755.81;5093754;28;20058;-79
2022/10/04 17:19:44;;;;;;;4.50;2.97;;;;;;;23.40;42.54;100737.47;5095107;28;20051;-80
2022/10/04 17:22:32;;;;;;;7.05;2.80;;;;;;;23.43;43.10;100765.25;5101946;28;20054;-78
2022/10/04 17:25:13;;;;;;;3.92;2.63;;;;;;;23.31;42.46;100762.44;5101349;28;20510;-72
2022/10/04 17:27:51;;;;;;;5.97;2.65;;;;;;;23.29;42.88;100759.97;5104339;28;20078;-76
2022/10/04 17:30:27;;;;;;;6.97;3.72;;;;;;;23.18;42.69;100758.84;5097549;28;20104;-82
2022/10/04 17:33:22;;;;;;;7.13;2.97;;;;;;;23.06;42.85;100761.72;5111214;28;20126;-77
2022/10/04 17:36:24;;;;;;;7.68;3.42;;;;;;;22.99;42.73;100768.00;5095402;28;20048;-75
2022/10/04 17:39:16;;;;;;;4.40;2.97;;;;;;;22.89;42.87;100769.31;5090583;28;20071;-74
2022/10/04 17:41:57;;;;;;;11.40;2.97;;;;;;;22.81;43.30;100764.59;5092396;28;20051;-73
2022/10/04 17:44:24;;;;;;;8.15;2.90;;;;;;;22.76;44.01;100773.34;5093075;28;20052;-76
2022/10/04 17:47:05;;;;;;;10.40;4.22;;;;;;;22.56;44.13;100746.69;5118248;27;20047;-75
2022/10/04 17:55:54;;;;;;;8.50;3.95;;;;;;;22.30;44.83;100755.59;5111625;28;20048;-74
2022/10/04 17:58:29;;;;;;;12.70;4.85;;;;;;;22.21;45.53;100760.56;5113828;28;20044;-76
2022/10/04 18:01:05;;;;;;;12.05;4.93;;;;;;;22.17;45.97;100771.00;5110617;28;20503;-80
2022/10/04 18:03:38;;;;;;;9.80;5.03;;;;;;;22.11;46.33;100764.66;5093458;28;20059;-77
2022/10/04 18:06:33;;;;;;;9.60;5.40;;;;;;;22.04;46.23;100772.97;5107473;28;20059;-87
2022/10/04 18:09:22;;;;;;;11.02;6.03;;;;;;;21.96;46.85;100760.50;5099760;28;20142;-78
2022/10/04 18:11:54;;;;;;;13.35;5.65;;;;;;;21.87;46.56;100768.31;5088764;28;20052;-76
2022/10/04 18:14:44;;;;;;;13.93;5.88;;;;;;;21.70;46.83;100772.16;5101509;28;20429;-78
2022/10/04 18:17:29;;;;;;;12.60;10.75;;;;;;;21.69;47.46;100783.91;5097941;28;20036;-77
2022/10/04 18:20:13;;;;;;;12.77;11.27;;;;;;;21.62;47.89;100766.59;5108182;28;20058;-78
2022/10/04 18:22:48;;;;;;;15.75;9.55;;;;;;;21.58;47.98;100777.00;5094950;28;20131;-77
2022/10/04 18:25:25;;;;;;;14.43;8.13;;;;;;;21.50;48.47;100779.59;5092929;28;20058;-77
2022/10/04 18:28:05;;;;;;;15.85;11.68;;;;;;;21.43;48.51;100776.44;5102399;28;20044;-78
2022/10/04 18:30:47;;;;;;;20.15;11.30;;;;;;;21.35;48.76;100776.53;5113677;28;20051;-79
2022/10/04 18:33:18;;;;;;;17.33;11.50;;;;;;;21.33;49.22;100781.69;5112405;27;20052;-79
2022/10/04 18:35:59;;;;;;;13.18;11.10;;;;;;;21.25;49.44;100787.13;5111878;28;20047;-74
2022/10/04 18:38:29;;;;;;;11.93;7.10;;;;;;;21.16;49.75;100792.06;5102271;28;20044;-78
2022/10/04 18:41:00;;;;;;;11.90;6.18;;;;;;;21.14;49.98;100796.41;5113675;28;20051;-79
2022/10/04 18:43:31;;;;;;;10.50;6.00;;;;;;;21.00;50.30;100791.84;5107213;28;20052;-78
2022/10/04 18:46:21;;;;;;;14.88;7.70;;;;;;;20.93;50.02;100808.59;5109870;28;20067;-79
2022/10/04 18:48:55;;;;;;;12.52;6.50;;;;;;;20.75;50.70;100784.31;5101934;28;20555;-78
2022/10/04 18:51:39;;;;;;;14.20;7.70;;;;;;;20.70;50.85;100788.19;5114495;28;20048;-78
2022/10/04 18:54:25;;;;;;;12.18;6.30;;;;;;;20.82;51.31;100818.69;5110608;28;20044;-77
2022/10/04 18:57:12;;;;;;;15.90;7.25;;;;;;;20.72;51.45;100811.41;5114246;28;20044;-80
2022/10/04 19:03:26;;;;;;;17.83;6.75;;;;;;;20.55;51.36;100815.16;5101698;28;20490;-74
2022/10/04 19:06:02;;;;;;;14.25;6.80;;;;;;;20.33;51.87;100796.38;5116657;28;20052;-75